Time;durP1;ratioP1;P1;durP2;ratioP2;P2;SDS_P1;SDS_P2;PMS_P1;PMS_P2;Temp;Humidity;BMP_temperature;BMP_pressure;BME280_temperature;BME280_humidity;BME280_pressure;Samples;Min_cycle;Max_cycle;Signal;HPM_P1;HPM_P2
2021/06/25 00:01:16;0.00;0.00;0.62;0.00;0.00;0.62;4.67;3.90;;;26.40;33.30;;;;;;2241521;62;20588;-63
2021/06/25 00:03:42;0.00;0.00;0.62;0.00;0.00;0.62;4.57;4.17;;;26.40;33.30;;;;;;2241582;62;20813;-64
2021/06/25 00:06:09;0.00;0.00;0.62;0.00;0.00;0.62;5.23;4.00;;;26.40;33.30;;;;;;2241742;62;20778;-64
2021/06/25 00:08:35;0.00;0.00;0.62;0.00;0.00;0.62;7.60;5.40;;;26.40;33.30;;;;;;2241625;62;20355;-64
2021/06/25 00:11:03;0.00;0.00;0.62;0.00;0.00;0.62;4.97;4.30;;;26.30;33.20;;;;;;2241502;62;20363;-63
2021/06/25 00:13:30;0.00;0.00;0.62;0.00;0.00;0.62;8.93;4.50;;;26.30;33.30;;;;;;2241756;61;20465;-65
2021/06/25 00:15:56;0.00;0.00;0.62;0.00;0.00;0.62;4.10;3.80;;;26.30;33.30;;;;;;2241530;62;20359;-63
2021/06/25 00:18:23;0.00;0.00;0.62;0.00;0.00;0.62;5.43;4.57;;;26.30;33.30;;;;;;2241420;62;20376;-64
2021/06/25 00:20:50;0.00;0.00;0.62;0.00;0.00;0.62;5.13;4.40;;;26.30;33.40;;;;;;2241678;62;20355;-62
2021/06/25 00:23:17;0.00;0.00;0.62;0.00;0.00;0.62;4.53;4.13;;;26.30;33.40;;;;;;2241610;61;20853;-63
2021/06/25 00:25:43;0.00;0.00;0.62;0.00;0.00;0.62;5.37;4.73;;;26.30;33.40;;;;;;2237752;62;20443;-64
2021/06/25 00:28:11;0.00;0.00;0.62;0.00;0.00;0.62;5.63;4.77;;;26.30;33.40;;;;;;2241930;62;20363;-65
2021/06/25 00:30:38;0.00;0.00;0.62;0.00;0.00;0.62;6.77;4.27;;;26.20;33.30;;;;;;2241470;62;20363;-62
2021/06/25 00:33:05;0.00;0.00;0.62;0.00;0.00;0.62;3.97;3.60;;;26.20;33.30;;;;;;2241466;61;20383;-61
2021/06/25 00:35:32;0.00;0.00;0.62;0.00;0.00;0.62;5.00;3.80;;;26.20;33.30;;;;;;2241784;62;20590;-64
2021/06/25 00:37:58;0.00;0.00;0.62;0.00;0.00;0.62;4.67;3.70;;;26.20;33.40;;;;;;2241444;62;20677;-63
2021/06/25 00:40:25;0.00;0.00;0.62;0.00;0.00;0.62;5.03;3.87;;;26.20;33.40;;;;;;2241477;62;20359;-62
2021/06/25 00:42:51;0.00;0.00;0.62;0.00;0.00;0.62;4.17;3.77;;;26.20;33.40;;;;;;2238133;62;20386;-62
2021/06/25 00:45:20;0.00;0.00;0.62;0.00;0.00;0.62;3.90;3.50;;;26.20;33.40;;;;;;2241525;62;20383;-62
2021/06/25 00:47:49;0.00;0.00;0.62;0.00;0.00;0.62;3.73;3.40;;;26.20;33.50;;;;;;2241520;62;20379;-62
2021/06/25 00:50:19;0.00;0.00;0.62;0.00;0.00;0.62;4.53;3.70;;;26.20;33.50;;;;;;2241558;62;20699;-64
2021/06/25 00:52:49;0.00;0.00;0.62;0.00;0.00;0.62;3.70;3.40;;;26.20;33.50;;;;;;2241408;61;20747;-64
2021/06/25 00:55:17;0.00;0.00;0.62;0.00;0.00;0.62;4.10;3.70;;;26.20;33.50;;;;;;2241337;62;20360;-64
2021/06/25 00:57:44;0.00;0.00;0.62;0.00;0.00;0.62;4.83;3.60;;;26.20;33.50;;;;;;2241684;62;20362;-63
2021/06/25 01:00:13;0.00;0.00;0.62;0.00;0.00;0.62;3.50;3.20;;;26.20;33.50;;;;;;2241198;62;20582;-63
2021/06/25 01:02:41;0.00;0.00;0.62;0.00;0.00;0.62;3.90;3.50;;;26.20;33.50;;;;;;2241350;61;20392;-61
2021/06/25 01:05:09;0.00;0.00;0.62;0.00;0.00;0.62;4.17;3.00;;;26.20;33.50;;;;;;2234791;62;20664;-64
2021/06/25 01:07:36;0.00;0.00;0.62;0.00;0.00;0.62;3.60;3.20;;;26.20;33.50;;;;;;2241338;62;20366;-63
2021/06/25 01:10:07;0.00;0.00;0.62;0.00;0.00;0.62;3.60;3.20;;;26.20;33.50;;;;;;2241217;62;20363;-63
2021/06/25 01:12:34;0.00;0.00;0.62;0.00;0.00;0.62;3.17;2.90;;;26.20;33.50;;;;;;2241678;61;20384;-64
2021/06/25 01:15:01;0.00;0.00;0.62;0.00;0.00;0.62;3.80;3.50;;;26.30;33.60;;;;;;2241388;62;20363;-64
2021/06/25 01:17:30;0.00;0.00;0.62;0.00;0.00;0.62;3.50;3.20;;;26.30;33.60;;;;;;2241282;62;20707;-64
2021/06/25 01:20:00;0.00;0.00;0.62;0.00;0.00;0.62;4.27;3.20;;;26.20;33.50;;;;;;2241006;62;20395;-63
2021/06/25 01:22:34;0.00;0.00;0.62;0.00;0.00;0.62;3.50;3.20;;;26.30;33.60;;;;;;2240864;62;20419;-64
2021/06/25 01:25:08;0.00;0.00;0.62;0.00;0.00;0.62;3.77;3.23;;;26.30;33.50;;;;;;2240927;62;20379;-64
2021/06/25 01:27:36;0.00;0.00;0.62;0.00;0.00;0.62;4.33;3.30;;;26.30;33.60;;;;;;2241268;62;20371;-64
2021/06/25 01:30:05;0.00;0.00;0.62;0.00;0.00;0.62;4.27;3.17;;;26.20;33.50;;;;;;2236984;62;20355;-63
2021/06/25 01:32:32;0.00;0.00;0.62;0.00;0.00;0.62;4.77;3.23;;;26.30;33.60;;;;;;2240851;61;20387;-64
2021/06/25 01:35:01;0.00;0.00;0.62;0.00;0.00;0.62;3.50;3.07;;;26.30;33.60;;;;;;2241518;62;20688;-63
2021/06/25 01:37:30;0.00;0.00;0.62;0.00;0.00;0.62;4.47;3.20;;;26.30;33.50;;;;;;2240892;62;20359;-64
2021/06/25 01:39:56;0.00;0.00;0.62;0.00;0.00;0.62;4.20;3.37;;;26.30;33.50;;;;;;2241068;62;20454;-63
2021/06/25 01:42:23;0.00;0.00;0.62;0.00;0.00;0.62;3.33;3.03;;;26.30;33.60;;;;;;2241310;61;20383;-64
2021/06/25 01:44:52;0.00;0.00;0.62;0.00;0.00;0.62;4.43;3.30;;;26.30;33.60;;;;;;2241295;62;20428;-63
2021/06/25 01:47:19;0.00;0.00;0.62;0.00;0.00;0.62;3.30;3.00;;;26.30;33.60;;;;;;2241275;62;20705;-64
2021/06/25 01:49:46;0.00;0.00;0.62;0.00;0.00;0.62;3.60;3.10;;;26.30;33.50;;;;;;2241489;62;20359;-63
2021/06/25 01:52:17;0.00;0.00;0.62;0.00;0.00;0.62;3.57;3.10;;;26.30;33.60;;;;;;2241203;61;20386;-63
2021/06/25 01:54:45;0.00;0.00;0.62;0.00;0.00;0.62;3.50;3.20;;;26.30;33.60;;;;;;2241250;62;20359;-64
2021/06/25 01:57:13;0.00;0.00;0.62;0.00;0.00;0.62;5.57;3.30;;;26.30;33.50;;;;;;2237866;62;20564;-64
2021/06/25 01:59:40;0.00;0.00;0.62;0.00;0.00;0.62;3.70;3.40;;;26.30;33.60;;;;;;2241167;62;20488;-63
2021/06/25 02:02:07;0.00;0.00;0.62;0.00;0.00;0.62;3.53;3.23;;;26.30;33.60;;;;;;2241219;62;20375;-64
2021/06/25 02:04:34;0.00;0.00;0.62;0.00;0.00;0.62;3.07;2.80;;;26.30;33.60;;;;;;2241487;62;20383;-65
2021/06/25 02:07:00;0.00;0.00;0.62;0.00;0.00;0.62;4.13;3.80;;;26.30;33.60;;;;;;2241370;62;20359;-64
2021/06/25 02:09:27;0.00;0.00;0.62;0.00;0.00;0.62;4.30;3.20;;;26.30;33.60;;;;;;2241826;62;20394;-64
2021/06/25 02:11:55;0.00;0.00;0.62;0.00;0.00;0.62;3.37;3.07;;;26.30;33.50;;;;;;2242206;61;20615;-65
2021/06/25 02:14:22;0.00;0.00;0.62;0.00;0.00;0.62;4.40;2.80;;;26.30;33.50;;;;;;2241921;62;20627;-61
2021/06/25 02:16:49;0.00;0.00;0.62;0.00;0.00;0.62;4.10;3.70;;;26.30;33.50;;;;;;2241892;62;20359;-65
2021/06/25 02:19:16;0.00;0.00;0.62;0.00;0.00;0.62;3.90;3.60;;;26.30;33.50;;;;;;2242123;62;20403;-63
2021/06/25 02:21:42;0.00;0.00;0.62;0.00;0.00;0.62;4.67;3.17;;;26.30;33.60;;;;;;2241761;62;20363;-63
2021/06/25 02:24:09;0.00;0.00;0.62;0.00;0.00;0.62;3.70;3.40;;;26.30;33.60;;;;;;2241805;62;20375;-64
2021/06/25 02:26:35;0.00;0.00;0.62;0.00;0.00;0.62;2.87;2.67;;;26.30;33.60;;;;;;2242167;62;20351;-65
2021/06/25 02:29:03;0.00;0.00;0.62;0.00;0.00;0.62;3.60;3.30;;;26.30;33.60;;;;;;2241881;62;20364;-65
2021/06/25 02:31:31;0.00;0.00;0.62;0.00;0.00;0.62;3.50;3.20;;;26.30;33.60;;;;;;2242018;62;20561;-64
2021/06/25 02:33:57;0.00;0.00;0.62;0.00;0.00;0.62;3.33;3.00;;;26.30;33.60;;;;;;2242126;62;20383;-64
2021/06/25 02:36:24;0.00;0.00;0.62;0.00;0.00;0.62;3.73;2.80;;;26.30;33.60;;;;;;2241864;62;20358;-64
2021/06/25 02:38:50;0.00;0.00;0.62;0.00;0.00;0.62;3.23;2.93;;;26.30;33.60;;;;;;2241847;62;20386;-64
2021/06/25 02:41:19;0.00;0.00;0.62;0.00;0.00;0.62;3.20;2.90;;;26.30;33.60;;;;;;2242034;62;20483;-65
2021/06/25 02:43:45;0.00;0.00;0.62;0.00;0.00;0.62;7.93;3.37;;;26.30;33.60;;;;;;2241841;62;20715;-64
2021/06/25 02:46:14;0.00;0.00;0.62;0.00;0.00;0.62;3.13;2.83;;;26.30;33.70;;;;;;2241892;62;20616;-64
2021/06/25 02:48:40;0.00;0.00;0.62;0.00;0.00;0.62;6.00;3.33;;;26.30;33.60;;;;;;2242302;62;20363;-64
2021/06/25 02:51:07;0.00;0.00;0.62;0.00;0.00;0.62;3.30;3.00;;;26.30;33.60;;;;;;2241721;62;20359;-64
2021/06/25 02:53:33;0.00;0.00;0.62;0.00;0.00;0.62;3.10;2.70;;;26.30;33.60;;;;;;2242035;61;20379;-64
2021/06/25 02:56:00;0.00;0.00;0.62;0.00;0.00;0.62;3.20;2.90;;;26.30;34.30;;;;;;2241879;62;20684;-64
2021/06/25 02:58:26;0.00;0.00;0.62;0.00;0.00;0.62;3.83;3.40;;;26.30;33.60;;;;;;2241790;62;20413;-64
2021/06/25 03:00:53;0.00;0.00;0.62;0.00;0.00;0.62;3.20;2.90;;;26.30;33.60;;;;;;2241921;62;20356;-63
2021/06/25 03:03:22;0.00;0.00;0.62;0.00;0.00;0.62;3.77;3.47;;;26.40;33.70;;;;;;2241841;61;20422;-63
2021/06/25 03:05:50;0.00;0.00;0.62;0.00;0.00;0.62;4.60;3.80;;;26.40;33.70;;;;;;2241775;62;20739;-63
2021/06/25 03:08:17;0.00;0.00;0.62;0.00;0.00;0.62;4.67;3.57;;;26.40;33.70;;;;;;2242080;62;20359;-63
2021/06/25 03:10:49;0.00;0.00;0.62;0.00;0.00;0.62;3.77;3.40;;;26.30;33.60;;;;;;2241648;62;20647;-63
2021/06/25 03:13:17;0.00;0.00;0.62;0.00;0.00;0.62;4.67;4.13;;;26.30;33.60;;;;;;2241813;61;20748;-64
2021/06/25 03:15:44;0.00;0.00;0.62;0.00;0.00;0.62;4.13;3.20;;;26.30;33.60;;;;;;2242009;62;20568;-64
2021/06/25 03:18:11;0.00;0.00;0.62;0.00;0.00;0.62;5.40;3.50;;;26.40;33.70;;;;;;2241635;61;20391;-64
2021/06/25 03:20:40;0.00;0.00;0.62;0.00;0.00;0.62;3.80;3.50;;;26.30;33.60;;;;;;2241744;62;20356;-64
2021/06/25 03:23:07;0.00;0.00;0.62;0.00;0.00;0.62;4.60;4.20;;;26.30;33.60;;;;;;2241987;61;20395;-63
2021/06/25 03:25:33;0.00;0.00;0.62;0.00;0.00;0.62;3.63;3.33;;;26.30;33.60;;;;;;2241705;62;20804;-63
2021/06/25 03:28:00;0.00;0.00;0.62;0.00;0.00;0.62;3.93;3.63;;;26.30;33.70;;;;;;2242017;62;20446;-63
2021/06/25 03:30:27;0.00;0.00;0.62;0.00;0.00;0.62;4.17;3.77;;;26.30;33.60;;;;;;2241814;62;20735;-64
2021/06/25 03:32:53;0.00;0.00;0.62;0.00;0.00;0.62;4.23;3.80;;;26.40;33.70;;;;;;2238008;62;20639;-64
2021/06/25 03:35:20;0.00;0.00;0.62;0.00;0.00;0.62;3.90;3.50;;;26.30;33.60;;;;;;2242075;62;20363;-63
2021/06/25 03:37:48;0.00;0.00;0.62;0.00;0.00;0.62;4.77;3.57;;;26.40;33.70;;;;;;2241751;62;20403;-63
2021/06/25 03:40:16;0.00;0.00;0.62;0.00;0.00;0.62;4.53;4.10;;;26.30;33.60;;;;;;2241453;62;20367;-63
2021/06/25 03:42:44;0.00;0.00;0.62;0.00;0.00;0.62;3.77;3.33;;;26.30;33.60;;;;;;2241926;61;20455;-63
2021/06/25 03:45:13;0.00;0.00;0.62;0.00;0.00;0.62;5.83;3.70;;;26.30;33.60;;;;;;2241717;62;20442;-63
2021/06/25 03:47:41;0.00;0.00;0.62;0.00;0.00;0.62;3.97;3.67;;;26.30;33.60;;;;;;2241607;62;20603;-64
2021/06/25 03:50:09;0.00;0.00;0.62;0.00;0.00;0.62;3.80;3.30;;;26.30;33.60;;;;;;2241793;62;20368;-64
2021/06/25 03:52:36;0.00;0.00;0.62;0.00;0.00;0.62;4.77;4.30;;;26.30;33.60;;;;;;2241681;61;20379;-63
2021/06/25 03:55:09;0.00;0.00;0.62;0.00;0.00;0.62;4.00;3.63;;;26.30;33.60;;;;;;2241836;62;20356;-63
2021/06/25 03:57:36;0.00;0.00;0.62;0.00;0.00;0.62;4.20;3.70;;;26.30;33.60;;;;;;2241791;62;20364;-63
2021/06/25 04:00:05;0.00;0.00;0.62;0.00;0.00;0.62;4.40;4.00;;;26.30;33.60;;;;;;2241570;62;20355;-64
2021/06/25 04:02:39;0.00;0.00;0.62;0.00;0.00;0.62;3.90;3.50;;;26.30;33.60;;;;;;2241819;61;20426;-65
2021/06/25 04:05:09;0.00;0.00;0.62;0.00;0.00;0.62;5.77;4.20;;;26.30;33.60;;;;;;2241543;62;20515;-65
2021/06/25 04:07:36;0.00;0.00;0.62;0.00;0.00;0.62;5.35;4.63;;;26.30;33.70;;;;;;2241542;62;20375;-64
2021/06/25 04:10:07;0.00;0.00;0.62;0.00;0.00;0.62;4.70;4.30;;;26.30;33.80;;;;;;2241592;62;20241;-65
2021/06/25 04:12:33;0.00;0.00;0.62;0.00;0.00;0.62;4.10;3.80;;;26.30;33.80;;;;;;2241469;61;20383;-63
2021/06/25 04:15:00;0.00;0.00;0.62;0.00;0.00;0.62;4.87;4.47;;;26.30;33.80;;;;;;2241519;62;20363;-65
2021/06/25 04:17:27;0.00;0.00;0.62;0.00;0.00;0.62;4.57;3.73;;;26.30;33.80;;;;;;2241617;62;20579;-65
2021/06/25 04:19:53;0.00;0.00;0.62;0.00;0.00;0.62;4.50;3.83;;;26.30;33.80;;;;;;2241269;62;20351;-65
2021/06/25 04:22:20;0.00;0.00;0.62;0.00;0.00;0.62;4.40;4.00;;;26.20;33.70;;;;;;2241679;61;20399;-63
2021/06/25 04:24:47;0.00;0.00;0.62;0.00;0.00;0.62;5.63;4.67;;;26.20;33.80;;;;;;2241618;62;20384;-64
2021/06/25 04:27:16;0.00;0.00;0.62;0.00;0.00;0.62;5.70;4.43;;;26.20;33.80;;;;;;2241613;62;20364;-64
2021/06/25 04:29:43;0.00;0.00;0.62;0.00;0.00;0.62;4.43;3.73;;;26.20;33.80;;;;;;2241555;62;20444;-64
2021/06/25 04:32:11;0.00;0.00;0.62;0.00;0.00;0.62;4.17;3.80;;;26.20;33.80;;;;;;2241552;61;20380;-64
2021/06/25 04:34:38;0.00;0.00;0.62;0.00;0.00;0.62;5.27;4.13;;;26.20;33.90;;;;;;2241838;62;20366;-63
2021/06/25 04:37:05;0.00;0.00;0.62;0.00;0.00;0.62;4.10;3.70;;;26.20;33.90;;;;;;2241664;62;20351;-63
2021/06/25 04:39:31;0.00;0.00;0.62;0.00;0.00;0.62;4.57;3.73;;;26.20;34.00;;;;;;2241259;62;20360;-69
2021/06/25 04:41:58;0.00;0.00;0.62;0.00;0.00;0.62;4.50;4.10;;;26.20;34.60;;;;;;2241657;61;20591;-67
2021/06/25 04:44:26;0.00;0.00;0.62;0.00;0.00;0.62;4.83;3.63;;;26.20;34.10;;;;;;2237838;62;20352;-65
2021/06/25 04:46:52;0.00;0.00;0.62;0.00;0.00;0.62;3.60;3.30;;;26.20;34.10;;;;;;2241446;62;20439;-64
2021/06/25 04:49:19;0.00;0.00;0.62;0.00;0.00;0.62;4.10;3.80;;;26.20;34.10;;;;;;2241744;62;20360;-67
2021/06/25 04:51:45;0.00;0.00;0.62;0.00;0.00;0.62;6.43;4.17;;;26.20;34.10;;;;;;2241296;61;20403;-67
2021/06/25 04:54:12;0.00;0.00;0.62;0.00;0.00;0.62;4.60;4.20;;;26.20;34.10;;;;;;2237781;62;20356;-67
2021/06/25 04:56:39;0.00;0.00;0.62;0.00;0.00;0.62;9.40;4.63;;;26.20;34.10;;;;;;2241741;62;20407;-65
2021/06/25 04:59:05;0.00;0.00;0.62;0.00;0.00;0.62;4.50;3.97;;;26.20;34.10;;;;;;2241461;62;20428;-64
2021/06/25 05:01:33;0.00;0.00;0.62;0.00;0.00;0.62;5.03;4.60;;;26.20;34.10;;;;;;2241109;62;20400;-62
2021/06/25 05:04:00;0.00;0.00;0.62;0.00;0.00;0.62;6.50;4.83;;;26.20;34.10;;;;;;2236865;62;20390;-65
2021/06/25 05:06:26;0.00;0.00;0.62;0.00;0.00;0.62;5.17;4.43;;;26.30;34.20;;;;;;2237544;62;20391;-65
2021/06/25 05:08:53;0.00;0.00;0.62;0.00;0.00;0.62;3.83;3.53;;;26.30;34.20;;;;;;2241357;62;20360;-66
2021/06/25 05:11:19;0.00;0.00;0.62;0.00;0.00;0.62;4.73;4.33;;;26.30;34.20;;;;;;2237786;62;20426;-62
2021/06/25 05:13:46;0.00;0.00;0.62;0.00;0.00;0.62;5.17;4.50;;;26.30;34.20;;;;;;2241400;62;20380;-62
2021/06/25 05:16:13;0.00;0.00;0.62;0.00;0.00;0.62;5.50;4.30;;;26.30;34.20;;;;;;2237724;62;20618;-64
2021/06/25 05:18:41;0.00;0.00;0.62;0.00;0.00;0.62;5.10;4.60;;;26.30;34.20;;;;;;2241373;62;20359;-68
2021/06/25 05:21:08;0.00;0.00;0.62;0.00;0.00;0.62;6.73;4.17;;;26.30;34.20;;;;;;2241337;62;20666;-61
2021/06/25 05:23:34;0.00;0.00;0.62;0.00;0.00;0.62;5.13;4.63;;;26.30;34.20;;;;;;2240963;62;20391;-64
2021/06/25 05:26:02;0.00;0.00;0.62;0.00;0.00;0.62;4.80;4.30;;;26.30;34.20;;;;;;2241462;62;20419;-67
2021/06/25 05:28:29;0.00;0.00;0.62;0.00;0.00;0.62;5.30;4.80;;;26.40;34.20;;;;;;2241363;62;20500;-65
2021/06/25 05:30:55;0.00;0.00;0.62;0.00;0.00;0.62;4.63;4.10;;;26.30;34.10;;;;;;2241151;62;20374;-66
2021/06/25 05:33:22;0.00;0.00;0.62;0.00;0.00;0.62;6.43;5.30;;;26.40;34.10;;;;;;2241521;61;20379;-71
2021/06/25 05:35:50;0.00;0.00;0.62;0.00;0.00;0.62;6.57;5.80;;;26.40;34.10;;;;;;2241380;62;20355;-66
2021/06/25 05:38:17;0.00;0.00;0.62;0.00;0.00;0.62;6.70;6.10;;;26.40;34.10;;;;;;2241079;62;20443;-65
2021/06/25 05:40:44;0.00;0.00;0.62;0.00;0.00;0.62;8.50;6.53;;;26.40;34.00;;;;;;2244323;56;20408;-67
2021/06/25 05:43:11;0.00;0.00;0.62;0.00;0.00;0.62;7.40;5.70;;;26.40;34.00;;;;;;2253097;61;20376;-71
2021/06/25 05:45:39;0.00;0.00;0.62;0.00;0.00;0.62;5.40;4.90;;;26.30;33.90;;;;;;2253077;61;20392;-71
2021/06/25 05:48:08;0.00;0.00;0.62;0.00;0.00;0.62;8.70;7.27;;;26.30;33.90;;;;;;2253475;61;20719;-70
2021/06/25 05:50:35;0.00;0.00;0.62;0.00;0.00;0.62;7.07;6.47;;;26.30;33.90;;;;;;2253234;61;20480;-70
2021/06/25 05:53:03;0.00;0.00;0.62;0.00;0.00;0.62;5.97;5.47;;;26.30;33.80;;;;;;2253037;61;20733;-69
2021/06/25 05:55:30;0.00;0.00;0.62;0.00;0.00;0.62;10.50;7.93;;;26.30;33.80;;;;;;2253453;61;20416;-69
2021/06/25 05:57:57;0.00;0.00;0.62;0.00;0.00;0.62;9.40;7.03;;;26.30;33.80;;;;;;2253267;61;20349;-70
2021/06/25 06:00:24;0.00;0.00;0.62;0.00;0.00;0.62;7.40;5.40;;;26.20;33.60;;;;;;2252875;61;20758;-69
2021/06/25 06:02:50;0.00;0.00;0.62;0.00;0.00;0.62;9.03;6.57;;;26.20;33.70;;;;;;2253381;61;20377;-69
2021/06/25 06:05:17;0.00;0.00;0.62;0.00;0.00;0.62;7.40;6.77;;;26.20;33.70;;;;;;2253238;61;20384;-75
2021/06/25 06:07:43;0.00;0.00;0.62;0.00;0.00;0.62;6.40;5.27;;;26.10;33.80;;;;;;2252983;61;20352;-66
2021/06/25 06:10:13;0.00;0.00;0.62;0.00;0.00;0.62;6.53;5.93;;;26.10;33.90;;;;;;2253211;61;20362;-70
2021/06/25 06:12:40;0.00;0.00;0.62;0.00;0.00;0.62;6.20;4.93;;;26.10;34.00;;;;;;2253021;61;20639;-71
2021/06/25 06:15:08;0.00;0.00;0.62;0.00;0.00;0.62;5.00;4.47;;;26.10;34.10;;;;;;2252978;61;20353;-69
2021/06/25 06:17:37;0.00;0.00;0.62;0.00;0.00;0.62;6.47;4.67;;;26.10;34.20;;;;;;2256138;61;20361;-69
2021/06/25 06:20:06;0.00;0.00;0.62;0.00;0.00;0.62;5.57;4.77;;;26.10;34.20;;;;;;2252822;61;20463;-69
2021/06/25 06:33:49;0.00;0.00;0.62;0.00;0.00;0.62;6.67;4.43;;;26.30;34.20;;;;;;2252483;61;20585;-72
2021/06/25 06:36:23;0.00;0.00;0.62;0.00;0.00;0.62;6.80;5.93;;;26.30;34.20;;;;;;2252439;61;20433;-69
2021/06/25 06:38:50;0.00;0.00;0.62;0.00;0.00;0.62;6.90;5.80;;;26.30;34.20;;;;;;2253161;61;20353;-73
2021/06/25 06:41:19;0.00;0.00;0.62;0.00;0.00;0.62;5.83;5.20;;;26.30;34.20;;;;;;2252671;61;20376;-74
2021/06/25 06:43:47;0.00;0.00;0.62;0.00;0.00;0.62;6.43;5.53;;;26.30;34.10;;;;;;2252448;61;20385;-69
2021/06/25 06:46:15;0.00;0.00;0.62;0.00;0.00;0.62;7.10;5.40;;;26.30;34.00;;;;;;2252723;61;20395;-72
2021/06/25 06:48:44;0.00;0.00;0.62;0.00;0.00;0.62;5.57;5.07;;;26.40;34.10;;;;;;2252691;61;20364;-68
2021/06/25 06:51:12;0.00;0.00;0.62;0.00;0.00;0.62;5.43;4.93;;;26.40;34.10;;;;;;2252655;61;20372;-65
2021/06/25 06:53:45;0.00;0.00;0.62;0.00;0.00;0.62;5.87;5.37;;;26.40;34.00;;;;;;2253618;61;20475;-71
2021/06/25 06:56:14;0.00;0.00;0.62;0.00;0.00;0.62;7.87;6.87;;;26.40;33.90;;;;;;2253533;61;20379;-71
2021/06/25 06:58:42;0.00;0.00;0.62;0.00;0.00;0.62;8.07;6.73;;;26.50;33.80;;;;;;2256198;61;20360;-70
2021/06/25 07:01:10;0.00;0.00;0.62;0.00;0.00;0.62;6.60;6.00;;;26.40;33.60;;;;;;2253345;61;20365;-69
2021/06/25 07:03:36;0.00;0.00;0.62;0.00;0.00;0.62;8.67;7.30;;;26.50;33.50;;;;;;2253443;61;20381;-66
2021/06/25 07:06:04;0.00;0.00;0.62;0.00;0.00;0.62;8.77;7.10;;;26.50;33.30;;;;;;2253356;61;20400;-75
2021/06/25 07:08:33;0.00;0.00;0.62;0.00;0.00;0.62;9.63;8.40;;;26.50;33.30;;;;;;2253737;61;20467;-75
2021/06/25 07:11:00;0.00;0.00;0.62;0.00;0.00;0.62;7.90;7.30;;;26.40;33.20;;;;;;2252857;61;20404;-66
2021/06/25 07:13:27;0.00;0.00;0.62;0.00;0.00;0.62;9.37;8.50;;;26.40;33.20;;;;;;2253390;61;20381;-65
2021/06/25 07:15:56;0.00;0.00;0.62;0.00;0.00;0.62;7.83;7.17;;;26.40;33.30;;;;;;2253725;61;20357;-70
2021/06/25 07:18:23;0.00;0.00;0.62;0.00;0.00;0.62;9.73;8.73;;;26.30;33.30;;;;;;2253201;61;20488;-67
2021/06/25 07:20:51;0.00;0.00;0.62;0.00;0.00;0.62;11.17;9.77;;;26.30;33.40;;;;;;2253247;61;20364;-65
2021/06/25 07:23:18;0.00;0.00;0.62;0.00;0.00;0.62;8.70;7.90;;;26.20;33.50;;;;;;2253710;61;20381;-67
2021/06/25 07:25:45;0.00;0.00;0.62;0.00;0.00;0.62;7.50;6.57;;;26.20;33.60;;;;;;2253349;61;20379;-63
2021/06/25 07:28:11;0.00;0.00;0.62;0.00;0.00;0.62;10.30;7.07;;;26.20;33.80;;;;;;2253420;61;20384;-69
2021/06/25 07:30:38;0.00;0.00;0.62;0.00;0.00;0.62;11.53;10.53;;;26.20;33.90;;;;;;2253670;61;20403;-65
2021/06/25 07:33:07;0.00;0.00;0.62;0.00;0.00;0.62;11.33;9.70;;;26.20;33.90;;;;;;2253328;61;20375;-64
2021/06/25 07:35:33;0.00;0.00;0.62;0.00;0.00;0.62;10.20;9.30;;;26.20;34.00;;;;;;2253333;61;20701;-65
2021/06/25 07:38:00;0.00;0.00;0.62;0.00;0.00;0.62;12.80;11.63;;;26.20;34.10;;;;;;2256451;61;20368;-72
2021/06/25 07:40:27;0.00;0.00;0.62;0.00;0.00;0.62;11.93;10.20;;;26.10;34.00;;;;;;2253015;61;20444;-67
2021/06/25 07:42:53;0.00;0.00;0.62;0.00;0.00;0.62;8.80;7.87;;;26.10;33.90;;;;;;2253336;61;20388;-72
2021/06/25 07:45:20;0.00;0.00;0.62;0.00;0.00;0.62;11.17;10.17;;;26.10;34.00;;;;;;2253538;61;20772;-73
2021/06/25 07:47:47;0.00;0.00;0.62;0.00;0.00;0.62;9.40;8.50;;;26.10;34.10;;;;;;2253171;61;20475;-74
2021/06/25 07:50:19;0.00;0.00;0.62;0.00;0.00;0.62;14.17;10.60;;;26.00;34.10;;;;;;2253641;61;20364;-74
2021/06/25 07:52:45;0.00;0.00;0.62;0.00;0.00;0.62;12.67;10.43;;;26.10;34.20;;;;;;2253616;61;20716;-68
2021/06/25 07:55:13;0.00;0.00;0.62;0.00;0.00;0.62;11.50;10.30;;;26.10;34.20;;;;;;2253113;61;20357;-76
2021/06/25 07:57:40;0.00;0.00;0.62;0.00;0.00;0.62;15.30;11.07;;;26.00;34.20;;;;;;2253508;61;20369;-70
2021/06/25 08:00:09;0.00;0.00;0.62;0.00;0.00;0.62;11.87;10.77;;;26.00;34.30;;;;;;2253291;61;20361;-64
2021/06/25 08:02:39;0.00;0.00;0.62;0.00;0.00;0.62;14.50;10.20;;;26.00;34.30;;;;;;2253675;61;20376;-69
2021/06/25 08:05:07;0.00;0.00;0.62;0.00;0.00;0.62;12.73;11.20;;;26.00;34.30;;;;;;2253612;61;20408;-66
2021/06/25 08:07:36;0.00;0.00;0.62;0.00;0.00;0.62;12.73;10.50;;;26.00;34.50;;;;;;2253929;61;20578;-67
2021/06/25 08:10:06;0.00;0.00;0.62;0.00;0.00;0.62;11.43;10.27;;;25.90;34.50;;;;;;2253563;61;20361;-64
2021/06/25 08:12:33;0.00;0.00;0.62;0.00;0.00;0.62;11.53;10.50;;;25.90;34.60;;;;;;2253590;61;20387;-67
2021/06/25 08:14:59;0.00;0.00;0.62;0.00;0.00;0.62;13.20;10.77;;;25.90;34.70;;;;;;2253889;61;20353;-74
2021/06/25 08:17:26;0.00;0.00;0.62;0.00;0.00;0.62;11.90;10.70;;;25.90;34.80;;;;;;2253601;61;20361;-67
2021/06/25 08:19:53;0.00;0.00;0.62;0.00;0.00;0.62;10.77;9.73;;;25.80;34.80;;;;;;2253384;61;20365;-67
2021/06/25 08:22:19;0.00;0.00;0.62;0.00;0.00;0.62;12.07;10.90;;;25.80;34.80;;;;;;2253950;61;20388;-73
2021/06/25 08:24:48;0.00;0.00;0.62;0.00;0.00;0.62;12.20;11.00;;;25.80;34.90;;;;;;2253685;61;20360;-73
2021/06/25 08:27:14;0.00;0.00;0.62;0.00;0.00;0.62;12.67;11.50;;;25.80;35.00;;;;;;2253491;61;20371;-71
2021/06/25 08:29:41;0.00;0.00;0.62;0.00;0.00;0.62;12.73;11.53;;;25.70;34.90;;;;;;2253813;61;20643;-71
2021/06/25 08:32:08;0.00;0.00;0.62;0.00;0.00;0.62;12.80;11.60;;;25.70;34.90;;;;;;2253576;61;20709;-71
2021/06/25 08:34:35;0.00;0.00;0.62;0.00;0.00;0.62;11.63;10.53;;;25.70;34.90;;;;;;2253565;61;20357;-73
2021/06/25 08:37:01;0.00;0.00;0.62;0.00;0.00;0.62;11.57;10.47;;;25.70;34.90;;;;;;2253753;61;20357;-70
2021/06/25 08:39:30;0.00;0.00;0.62;0.00;0.00;0.62;10.30;9.50;;;25.60;34.90;;;;;;2253379;61;20360;-69
2021/06/25 08:42:02;0.00;0.00;0.62;0.00;0.00;0.62;11.23;10.30;;;25.60;34.90;;;;;;2253487;61;20384;-69
2021/06/25 08:44:32;0.00;0.00;0.62;0.00;0.00;0.62;11.37;10.27;;;25.50;35.00;;;;;;2253878;61;20353;-72
2021/06/25 08:46:59;0.00;0.00;0.62;0.00;0.00;0.62;10.30;9.40;;;25.50;35.20;;;;;;2253488;61;20416;-72
2021/06/25 08:49:28;0.00;0.00;0.62;0.00;0.00;0.62;11.07;10.03;;;25.50;35.30;;;;;;2253077;61;20372;-67
2021/06/25 08:51:55;0.00;0.00;0.62;0.00;0.00;0.62;11.53;10.43;;;25.50;35.30;;;;;;2253777;61;20372;-66
2021/06/25 08:54:22;0.00;0.00;0.62;0.00;0.00;0.62;10.20;9.20;;;25.40;36.10;;;;;;2253004;61;20360;-66
2021/06/25 08:56:48;0.00;0.00;0.62;0.00;0.00;0.62;11.47;10.27;;;25.40;35.60;;;;;;2253357;61;20391;-66
2021/06/25 08:59:19;0.00;0.00;0.62;0.00;0.00;0.62;11.50;10.40;;;25.40;35.60;;;;;;2253661;61;20709;-69
2021/06/25 09:01:49;0.00;0.00;0.62;0.00;0.00;0.62;10.73;9.83;;;25.40;35.60;;;;;;2252927;61;20356;-71
2021/06/25 09:04:33;0.00;0.00;0.62;0.00;0.00;0.62;11.40;10.30;;;25.40;35.60;;;;;;2253573;61;20426;-70
2021/06/25 09:07:01;0.00;0.00;0.62;0.00;0.00;0.62;11.17;10.07;;;25.40;35.70;;;;;;2253782;61;20431;-70
2021/06/25 09:09:42;0.00;0.00;0.62;0.00;0.00;0.62;14.73;11.07;;;25.30;35.80;;;;;;2253521;61;20357;-71
2021/06/25 09:12:13;0.00;0.00;0.62;0.00;0.00;0.62;18.40;12.90;;;25.30;35.90;;;;;;2253558;61;20423;-71
2021/06/25 09:15:03;0.00;0.00;0.62;0.00;0.00;0.62;10.67;9.67;;;25.30;36.10;;;;;;2253953;61;20353;-66
2021/06/25 09:17:30;0.00;0.00;0.62;0.00;0.00;0.62;14.40;11.60;;;25.30;36.10;;;;;;2253604;61;20361;-71
2021/06/25 09:19:57;0.00;0.00;0.62;0.00;0.00;0.62;14.07;10.43;;;25.30;36.30;;;;;;2253376;61;20357;-69
2021/06/25 09:22:25;0.00;0.00;0.62;0.00;0.00;0.62;12.17;10.10;;;25.30;36.30;;;;;;2253853;61;20377;-71
2021/06/25 09:25:07;0.00;0.00;0.62;0.00;0.00;0.62;11.37;10.33;;;25.30;36.40;;;;;;2253531;61;20664;-68
2021/06/25 09:27:35;0.00;0.00;0.62;0.00;0.00;0.62;11.13;10.13;;;25.30;36.60;;;;;;2253420;61;20567;-67
2021/06/25 09:30:13;0.00;0.00;0.62;0.00;0.00;0.62;11.83;10.63;;;25.30;37.50;;;;;;2253773;61;20361;-65
2021/06/25 09:32:42;0.00;0.00;0.62;0.00;0.00;0.62;10.87;9.93;;;25.30;37.10;;;;;;2253643;61;20450;-69
2021/06/25 09:35:16;0.00;0.00;0.62;0.00;0.00;0.62;11.53;10.43;;;25.20;37.20;;;;;;2253522;61;20353;-73
2021/06/25 09:37:46;0.00;0.00;0.62;0.00;0.00;0.62;9.47;8.60;;;25.20;38.00;;;;;;2253311;61;20583;-69
2021/06/25 09:40:15;0.00;0.00;0.62;0.00;0.00;0.62;13.00;11.40;;;25.20;37.20;;;;;;2253431;61;20356;-70
2021/06/25 09:42:44;0.00;0.00;0.62;0.00;0.00;0.62;16.97;13.80;;;25.20;37.60;;;;;;2253525;61;20386;-66
2021/06/25 09:45:15;0.00;0.00;0.62;0.00;0.00;0.62;14.17;12.77;;;25.20;38.00;;;;;;2253783;61;20385;-70
2021/06/25 09:47:44;0.00;0.00;0.62;0.00;0.00;0.62;13.67;12.37;;;25.20;37.90;;;;;;2253575;61;20364;-69
2021/06/25 09:50:14;0.00;0.00;0.62;0.00;0.00;0.62;14.30;13.00;;;25.20;37.70;;;;;;2253454;61;20362;-70
2021/06/25 09:52:56;0.00;0.00;0.62;0.00;0.00;0.62;8.70;7.90;;;25.20;37.50;;;;;;2253774;61;20376;-69